• Join FlightAware (Why Join?)
  • Login
  • US Flag 
09:38AM EST


 

Airport Tracker/Info


-or-


 

Live Flight TrackerFlight Track Log ✈ AVN50 ✈ 16-Oct-2013 ✈ NVVV / VLI - NZAA / AKL

Flight Track Log - Related Links

Times and Time Zones

All times are in EDT time to prevent confusion due to time zone crossing. See the AVN50 flight status page for this flight to view local times or setup timezone preferences in your user account.

Time Position Orientation Groundspeed Altitude Reporting Facility
EDT Latitude Longitude Course Direction KTS MPH feet Rate Location/Type
04:14PM -18.2386 168.4662 166° South  Level FlightAware Approximate
04:15PM -18.3465 168.4955 166° South  Level FlightAware Approximate
04:16PM -18.4543 168.5250 165° South  Level FlightAware Approximate
04:17PM -18.5621 168.5544 165° South  Level FlightAware Approximate
04:18PM -18.6700 168.5839 165° South  Level FlightAware Approximate
04:19PM -18.7778 168.6134 165° South  Level FlightAware Approximate
04:20PM -18.8856 168.6430 165° South  Level FlightAware Approximate
04:21PM -18.9934 168.6726 165° South  Level FlightAware Approximate
04:22PM -19.1012 168.7023 165° South  Level FlightAware Approximate
04:23PM -19.2090 168.7320 165° South  Level FlightAware Approximate
04:24PM -19.3168 168.7617 165° South  Level FlightAware Approximate
04:25PM -19.4246 168.7914 165° South  Level FlightAware Approximate
04:26PM -19.5324 168.8212 165° South  Level FlightAware Approximate
04:27PM -19.6402 168.8511 165° South  Level FlightAware Approximate
04:28PM -19.7480 168.8810 165° South  Level FlightAware Approximate
04:29PM -19.8558 168.9109 165° South  Level FlightAware Approximate
04:30PM -19.9636 168.9408 165° South  Level FlightAware Approximate
04:31PM -20.0713 168.9708 165° South  Level FlightAware Approximate
04:32PM -20.1791 169.0009 165° South  Level FlightAware Approximate
04:33PM -20.2868 169.0310 165° South  Level FlightAware Approximate
04:34PM -20.3946 169.0611 165° South  Level FlightAware Approximate
04:35PM -20.5023 169.0913 165° South  Level FlightAware Approximate
04:36PM -20.6101 169.1215 165° South  Level FlightAware Approximate
04:37PM -20.7178 169.1517 165° South  Level FlightAware Approximate
04:38PM -20.8256 169.1821 165° South  Level FlightAware Approximate
04:39PM -20.9333 169.2124 165° South  Level FlightAware Approximate
04:40PM -21.0410 169.2428 165° South  Level FlightAware Approximate
04:41PM -21.1487 169.2732 165° South  Level FlightAware Approximate
04:42PM -21.2564 169.3037 165° South  Level FlightAware Approximate
04:43PM -21.3641 169.3342 165° South  Level FlightAware Approximate
04:44PM -21.4718 169.3648 165° South  Level FlightAware Approximate
04:45PM -21.5795 169.3954 165° South  Level FlightAware Approximate
04:46PM -21.6872 169.4260 165° South  Level FlightAware Approximate
04:47PM -21.7949 169.4567 165° South  Level FlightAware Approximate
04:48PM -21.9026 169.4875 165° South  Level FlightAware Approximate
04:49PM -22.0102 169.5183 165° South  Level FlightAware Approximate
04:50PM -22.1179 169.5491 165° South  Level FlightAware Approximate
04:51PM -22.2255 169.5800 165° South  Level FlightAware Approximate
04:52PM -22.3332 169.6109 165° South  Level FlightAware Approximate
04:53PM -22.4408 169.6419 165° South  Level FlightAware Approximate
04:54PM -22.5485 169.6729 165° South  Level FlightAware Approximate
04:55PM -22.6561 169.7040 165° South  Level FlightAware Approximate
04:56PM -22.7638 169.7352 165° South  Level FlightAware Approximate
04:57PM -22.8714 169.7663 165° South  Level FlightAware Approximate
04:58PM -22.9790 169.7976 165° South  Level FlightAware Approximate
04:59PM -23.0866 169.8289 165° South  Level FlightAware Approximate
05:00PM -23.1942 169.8602 165° South  Level FlightAware Approximate
05:01PM -23.3018 169.8916 165° South  Level FlightAware Approximate
05:02PM -23.4094 169.9230 165° South  Level FlightAware Approximate
05:03PM -23.5170 169.9545 165° South  Level FlightAware Approximate
05:04PM -23.6246 169.9860 165° South  Level FlightAware Approximate
05:05PM -23.7321 170.0176 165° South  Level FlightAware Approximate
05:06PM -23.8397 170.0492 165° South  Level FlightAware Approximate
05:07PM -23.9467 170.0830 164° South  Level Estimated
05:08PM -24.0541 170.1154 165° South  Level FlightAware Approximate
05:09PM -24.1615 170.1478 165° South  Level FlightAware Approximate
05:10PM -24.2689 170.1803 165° South  Level FlightAware Approximate
05:11PM -24.3763 170.2129 165° South  Level FlightAware Approximate
05:12PM -24.4836 170.2455 165° South  Level FlightAware Approximate
05:13PM -24.5910 170.2782 165° South  Level FlightAware Approximate
05:14PM -24.6983 170.3109 165° South  Level FlightAware Approximate
05:14PM -25.7333 170.6167 164° South 500 575  Level New Zealand
05:15PM -24.8057 170.3437 165° South  Level FlightAware Approximate
05:16PM -24.9130 170.3765 164° South  Level FlightAware Approximate
05:16PM -26.0167 170.7000 165° South 500 575  Level New Zealand
05:18PM -26.1500 170.7500 161° South 511 588 600 Level New Zealand
05:20PM -26.4333 170.8333 165° South 511 588 660 Level New Zealand
05:22PM -26.7000 170.9167 164° South 511 588 660 Level New Zealand
05:24PM -26.9833 171.0167 163° South 511 588 720 Level New Zealand
05:26PM -27.2500 171.1000 164° South 511 588 720 Level New Zealand
05:28PM -27.5167 171.1833 165° South 511 588 780 Level New Zealand
05:30PM -27.8000 171.2833 163° South 511 588 780 Level New Zealand
05:32PM -28.0667 171.3667 165° South 511 588 840 Level New Zealand
05:34PM -28.3500 171.4500 165° South 511 588 900 Level New Zealand
05:36PM -28.6167 171.5500 162° South 511 588 900 Level New Zealand
05:38PM -28.9000 171.6333 166° South 511 588 960 Level New Zealand
05:40PM -29.1667 171.7333 162° South 511 588 1,020 Level New Zealand
05:42PM -29.4333 171.8167 165° South 511 588 1,080 Level New Zealand
05:44PM -29.7167 171.9167 163° South 497 572 1,140 Level New Zealand
05:46PM -29.9833 172.0000 165° South 506 582 1,260 Level New Zealand
05:48PM -30.2500 172.1000 162° South 506 582 1,320 Level New Zealand
05:50PM -30.5167 172.1833 165° South 506 582 1,440 Level New Zealand
05:52PM -30.8000 172.2833 163° South 506 582 1,560 Level New Zealand
05:54PM -31.0667 172.3833 162° South 506 582 1,740 Level New Zealand
05:56PM -31.3333 172.4667 165° South 506 582 1,920 Level New Zealand
05:58PM -31.6000 172.5667 162° South 506 582 2,160 Level New Zealand
06:00PM -31.8667 172.6667 162° South 506 582 2,460 Level New Zealand
06:02PM -32.1500 172.7500 166° South 506 582 2,820 Level New Zealand
06:04PM -32.4167 172.8500 162° South 506 582 3,360 Level New Zealand
06:06PM -32.6833 172.9500 162° South 506 582 4,080 Level New Zealand
06:08PM -32.9500 173.0500 163° South 506 582 5,280 Level New Zealand
06:10PM -33.2167 173.1500 163° South 506 582 7,440 Level New Zealand
06:12PM -33.5000 173.2500 164° South 506 582 12,420 Level New Zealand
06:13PM -33.5540 173.2690 164° South 485 558 37,000 23,580 Climbing FlightAware
06:13PM -33.6333 173.2833 164° South 485 558  Descending New Zealand
06:13PM -33.6240 173.2950 164° South 486 559 37,000 60,000 Climbing FlightAware
06:14PM -33.7070 173.3260 163° South 489 563 37,000  Level FlightAware
06:14PM -33.7700 173.3500 162° South 490 564 37,000  Level FlightAware
06:15PM -33.8570 173.3840 162° South 495 570 37,000  Level FlightAware
06:16PM -33.9320 173.4290 154° Southeast 512 589 37,000  Level FlightAware
06:16PM -34.0020 173.4810 154° Southeast 513 590 37,000  Level FlightAware
06:16PM -34.0167 173.4833 154° Southeast 506 582  Descending New Zealand
06:17PM -34.0730 173.5340 148° Southeast 515 593 37,000 37,620 Climbing FlightAware
06:17PM -34.1350 173.5800 148° Southeast 510 587 37,000  Level FlightAware
06:17PM -34.1333 173.5833 148° Southeast 515 593  Descending New Zealand
06:18PM -34.2150 173.6400 148° Southeast 512 589 37,000 30,360 Climbing FlightAware
06:18PM -34.2870 173.6950 148° Southeast 512 589 37,000  Level FlightAware
06:19PM -34.3690 173.7560 148° Southeast 512 589 37,000  Level FlightAware
06:19PM -34.3833 173.7667 148° Southeast 518 596  Descending New Zealand
06:20PM -34.4410 173.8100 148° Southeast 516 594 37,000 36,360 Climbing FlightAware
06:20PM -34.5167 173.8667 148° Southeast 514 592  Descending New Zealand
06:20PM -34.5100 173.8620 148° Southeast 513 590 37,000 63,420 Climbing FlightAware
06:21PM -34.5820 173.9170 148° Southeast 513 590 37,000  Level FlightAware
06:21PM -34.6510 173.9690 148° Southeast 513 590 37,000  Level FlightAware
06:22PM -34.7220 174.0230 148° Southeast 513 590 37,000  Level FlightAware
06:23PM -34.7910 174.0760 148° Southeast 513 590 37,000  Level FlightAware
06:23PM -34.8620 174.1300 148° Southeast 512 589 37,000  Level FlightAware
06:24PM -34.9320 174.1830 148° Southeast 509 586 37,000  Level FlightAware
06:24PM -35.0000 174.2333 148° Southeast 508 585  Descending New Zealand
06:24PM -35.0020 174.2360 148° Southeast 508 585 37,000 63,420 Climbing FlightAware
06:25PM -35.0710 174.2890 148° Southeast 502 578 37,000  Level FlightAware
06:26PM -35.1420 174.3440 148° Southeast 500 575 37,000  Level FlightAware
06:26PM -35.2110 174.3960 148° Southeast 500 575 37,000  Level FlightAware
06:27PM -35.2900 174.4580 147° Southeast 498 573 37,000 -360 Level FlightAware
06:27PM -35.3490 174.5030 147° Southeast 500 575 36,600 -1,800 Descending FlightAware
06:27PM -35.3667 174.5167 147° Southeast 502 578 -2,580 Descending New Zealand
06:28PM -35.4170 174.5570 147° Southeast 495 570 35,100 27,840 Climbing FlightAware
06:28PM -35.4833 174.6000 147° Southeast 496 571 -2,820 Descending New Zealand
06:29PM -35.5070 174.6120 147° Southeast 482 555 33,000 37,440 Climbing FlightAware
06:29PM -35.5900 174.6520 159° South 471 542 31,200 -2,880 Descending FlightAware
06:30PM -35.6600 174.6860 158° South 463 533 29,500 -3,480 Descending FlightAware
06:30PM -35.7310 174.7190 158° South 467 537 27,100 -3,660 Descending FlightAware
06:30PM -35.7333 174.7167 158° South 467 537 -3,360 Descending New Zealand
06:31PM -35.8010 174.7530 158° South 452 520 25,200 21,120 Climbing FlightAware
06:32PM -35.8700 174.7850 159° South 436 502 23,600 -2,340 Descending FlightAware
06:32PM -35.9330 174.8150 159° South 413 475 22,500 -1,920 Descending FlightAware
06:33PM -35.9960 174.8460 158° South 401 461 21,400 -2,100 Descending FlightAware
06:33PM -36.0550 174.8740 159° South 383 441 20,100 -2,280 Descending FlightAware
06:34PM -36.1220 174.9060 159° South 380 437 18,600 -2,220 Descending FlightAware
06:35PM -36.1833 174.9333 159° South 376 433 -2,100 Descending New Zealand
06:35PM -36.1860 174.9370 159° South 361 415 17,200 21,960 Climbing FlightAware
06:35PM -36.2430 174.9570 164° South 355 409 15,400 -2,400 Descending FlightAware
06:36PM -36.2920 174.9630 174° South 339 390 14,600 -1,680 Descending FlightAware
06:36PM -36.3560 174.9700 175° South 327 376 13,500 -1,680 Descending FlightAware
06:37PM -36.4070 174.9760 175° South 309 356 12,500 -1,500 Descending FlightAware
06:38PM -36.4500 174.9810 175° South 295 339 11,900 -1,500 Descending FlightAware
06:38PM -36.4667 174.9833 175° South 307 353 -1,680 Descending New Zealand
06:38PM -36.4990 174.9870 174° South 290 334 10,900 9,960 Climbing FlightAware
06:39PM -36.5400 174.9920 174° South 295 339 10,000 -1,800 Descending FlightAware
06:39PM -36.5500 175.0000 174° South 295 339 -1,740 Descending New Zealand
06:39PM -36.5680 174.9950 175° South 291 335 9,400 14,040 Climbing FlightAware
06:39PM -36.5940 174.9980 175° South 289 333 8,900 -1,740 Descending FlightAware
06:40PM -36.6200 175.0010 175° South 277 319 8,300 -1,740 Descending FlightAware
06:40PM -36.6540 175.0050 175° South 291 335 7,600 -1,740 Descending FlightAware
06:40PM -36.6810 175.0080 175° South 291 335 7,000 -1,320 Descending FlightAware
06:41PM -36.7190 175.0030 186° South 263 303 6,500 -1,320 Descending FlightAware
06:41PM -36.7440 174.9990 187° South 261 300 5,900 -1,980 Descending FlightAware
06:42PM -36.7690 174.9940 189° South 259 298 5,200 -1,680 Descending FlightAware
06:42PM -36.7930 174.9900 188° South 261 300 4,800 -1,080 Descending FlightAware
06:42PM -36.8220 174.9850 188° South 243 280 4,400 -720 Descending FlightAware
06:43PM -36.8440 174.9810 188° South 231 266 4,300 -420 Descending FlightAware
06:43PM -36.8540 174.9790 189° South 227 261 4,200 -540 Descending FlightAware
06:43PM -36.8790 174.9750 187° South 211 243 4,000 -720 Descending FlightAware
06:44PM -36.8990 174.9710 189° South 210 242 3,700 -1,080 Descending FlightAware
06:44PM -36.9190 174.9680 187° South 213 245 3,300 -1,080 Descending FlightAware
06:44PM -36.9380 174.9640 190° South 198 228 3,000 -1,080 Descending FlightAware
06:45PM -36.9610 174.9580 192° South 185 213 2,500 -1,200 Descending FlightAware
06:45PM -36.9660 174.9510 228° Southwest 178 205 2,300 -1,200 Descending FlightAware
06:45PM -36.9690 174.9410 249° West 173 199 2,100 -900 Descending FlightAware
06:45PM -36.9720 174.9320 247° West 170 196 2,000 -780 Descending FlightAware
06:45PM -36.9770 174.9120 253° West 165 190 1,700 -960 Descending FlightAware
06:46PM -36.9840 174.8900 248° West 157 181 1,300 -960 Descending FlightAware
06:46PM -36.9880 174.8730 254° West 148 170 1,000 -780 Descending FlightAware
06:47PM -36.9920 174.8590 250° West 135 155 800 -600 Descending FlightAware
06:47PM -36.9960 174.8430 253° West 126 145 600 -780 Descending FlightAware
06:47PM -37.0000 174.8290 250° West 126 145 300 -720 Descending FlightAware
06:48PM -37.0040 174.8140 252° West 125 144 100 -600 Descending FlightAware
06:48PM -37.0070 174.8040 249° West 125 144 -480 Descending FlightAware
06:48PM -37.0100 174.7930 251° West 76 87  Level FlightAware